Time;durP1;ratioP1;P1;durP2;ratioP2;P2;SDS_P1;SDS_P2;PMS_P1;PMS_P2;Temp;Humidity;BMP_temperature;BMP_pressure;BME280_temperature;BME280_humidity;BME280_pressure;Samples;Min_cycle;Max_cycle;Signal;HPM_P1;HPM_P2
2023/08/12 00:02:42;;;;;;;4.78;4.28;;;22.50;99.90;;;;;;6173359;28;87950;-66
2023/08/12 00:05:46;;;;;;;4.32;3.80;;;22.50;99.90;;;;;;6165449;28;89003;-66
2023/08/12 00:08:48;;;;;;;4.07;3.67;;;22.50;99.90;;;;;;6165404;28;89123;-66
2023/08/12 00:11:50;;;;;;;4.13;3.63;;;22.50;99.90;;;;;;6171690;28;89321;-66
2023/08/12 00:14:52;;;;;;;4.78;3.70;;;22.50;99.90;;;;;;6176875;28;88340;-66
2023/08/12 00:17:55;;;;;;;4.07;3.67;;;22.50;99.90;;;;;;6179027;28;89086;-66
2023/08/12 00:20:58;;;;;;;5.28;4.28;;;22.50;99.90;;;;;;6169422;28;89130;-66
2023/08/12 00:24:00;;;;;;;5.03;3.92;;;22.50;99.90;;;;;;6169248;28;90020;-66
2023/08/12 00:27:02;;;;;;;4.53;3.78;;;22.50;99.90;;;;;;6171359;28;88955;-66
2023/08/12 00:30:04;;;;;;;4.20;3.80;;;22.50;99.90;;;;;;6168185;28;88958;-65
2023/08/12 00:33:08;;;;;;;4.80;4.13;;;22.50;99.90;;;;;;6170199;28;89312;-66
2023/08/12 00:36:10;;;;;;;4.20;3.80;;;22.50;99.90;;;;;;6175737;28;89048;-66
2023/08/12 00:39:11;;;;;;;4.38;3.97;;;22.50;99.90;;;;;;6169148;28;89141;-65
2023/08/12 00:42:13;;;;;;;4.10;3.70;;;22.50;99.90;;;;;;6165918;28;88970;-66
2023/08/12 00:45:15;;;;;;;4.25;3.85;;;22.50;99.90;;;;;;6160464;28;88412;-65
2023/08/12 00:48:19;;;;;;;4.35;3.92;;;22.50;99.90;;;;;;6163066;28;88998;-66
2023/08/12 00:51:21;;;;;;;4.65;4.15;;;22.50;99.90;;;;;;6170959;28;89204;-65
2023/08/12 00:54:24;;;;;;;4.10;3.70;;;22.50;99.90;;;;;;6173712;28;90352;-65
2023/08/12 00:57:26;;;;;;;5.10;4.22;;;22.50;99.90;;;;;;6161891;28;88979;-66
2023/08/12 01:00:28;;;;;;;5.13;4.13;;;22.50;99.90;;;;;;6159840;28;90692;-66
2023/08/12 01:03:32;;;;;;;3.92;3.63;;;22.50;99.90;;;;;;6179306;28;89648;-66
2023/08/12 01:06:34;;;;;;;4.35;3.88;;;22.50;99.90;;;;;;6178466;28;89135;-66
2023/08/12 01:09:36;;;;;;;4.18;3.78;;;22.50;99.90;;;;;;6174850;28;88883;-67
2023/08/12 01:12:45;;;;;;;4.40;3.70;;;22.50;99.90;;;;;;6172802;28;89301;-66
2023/08/12 01:15:52;;;;;;;5.10;4.35;;;22.50;99.90;;;;;;6160575;28;87621;-67
2023/08/12 01:18:56;;;;;;;6.40;3.90;;;22.50;99.90;;;;;;6158439;28;89386;-67
2023/08/12 01:22:01;;;;;;;4.85;4.25;;;22.50;99.90;;;;;;6168182;28;88991;-65
2023/08/12 01:25:05;;;;;;;4.60;3.92;;;22.50;99.90;;;;;;6181200;28;90096;-66
2023/08/12 01:28:07;;;;;;;5.20;4.00;;;22.50;99.90;;;;;;6166887;28;87921;-67
2023/08/12 01:31:12;;;;;;;7.55;4.18;;;22.50;99.90;;;;;;6167175;28;87909;-67
2023/08/12 01:34:22;;;;;;;4.60;4.10;;;22.50;99.90;;;;;;6171481;28;87920;-67
2023/08/12 01:37:27;;;;;;;4.57;4.13;;;22.50;99.90;;;;;;6163218;28;87944;-67
2023/08/12 01:40:32;;;;;;;5.05;4.05;;;22.50;99.90;;;;;;6156892;28;89261;-66
2023/08/12 01:43:34;;;;;;;4.45;3.95;;;22.50;99.90;;;;;;6161316;28;88996;-67
2023/08/12 01:46:37;;;;;;;4.32;3.90;;;22.50;99.90;;;;;;6170693;28;88431;-67
2023/08/12 01:49:39;;;;;;;5.45;4.10;;;22.50;99.90;;;;;;6161390;28;88849;-67
2023/08/12 01:52:41;;;;;;;6.40;4.30;;;22.50;99.90;;;;;;6162853;28;87974;-67
2023/08/12 01:55:45;;;;;;;4.80;3.97;;;22.50;99.90;;;;;;6181825;28;89956;-67
2023/08/12 01:58:47;;;;;;;4.82;4.20;;;22.50;99.90;;;;;;6171261;28;89051;-67
2023/08/12 02:01:49;;;;;;;4.70;4.10;;;22.50;99.90;;;;;;6166205;28;89226;-67
2023/08/12 02:04:51;;;;;;;4.22;3.63;;;22.50;99.90;;;;;;6165191;28;89940;-67
2023/08/12 02:07:53;;;;;;;4.65;3.72;;;22.50;99.90;;;;;;6170623;28;89053;-67
2023/08/12 02:10:56;;;;;;;5.43;4.18;;;22.50;99.90;;;;;;6167529;28;89552;-67
2023/08/12 02:13:58;;;;;;;4.40;4.00;;;22.50;99.90;;;;;;6172729;28;89089;-67
2023/08/12 02:17:00;;;;;;;4.55;3.88;;;22.50;99.90;;;;;;6178560;28;90406;-67
2023/08/12 02:20:02;;;;;;;4.35;3.70;;;22.40;99.90;;;;;;6179631;28;89206;-67
2023/08/12 02:23:04;;;;;;;4.00;3.60;;;22.40;99.90;;;;;;6176448;28;88019;-67
2023/08/12 02:26:08;;;;;;;4.00;3.70;;;22.50;99.90;;;;;;6171409;28;89976;-67
2023/08/12 02:29:10;;;;;;;4.80;3.90;;;22.40;99.90;;;;;;6179443;28;88788;-67
2023/08/12 02:32:12;;;;;;;4.63;3.90;;;22.40;99.90;;;;;;6180790;28;88939;-67
2023/08/12 02:35:14;;;;;;;4.43;3.95;;;22.40;99.90;;;;;;6179943;28;89335;-67
2023/08/12 02:38:16;;;;;;;3.80;3.50;;;22.50;99.90;;;;;;6181310;28;89046;-67
2023/08/12 02:41:19;;;;;;;3.80;3.50;;;22.40;99.90;;;;;;6173377;28;89135;-67
2023/08/12 02:44:21;;;;;;;4.22;3.83;;;22.40;99.90;;;;;;6167120;28;89063;-67
2023/08/12 02:47:23;;;;;;;4.15;3.70;;;22.40;99.90;;;;;;6180296;28;88408;-67
2023/08/12 02:50:25;;;;;;;4.25;3.85;;;22.40;99.90;;;;;;6180774;28;88996;-67
2023/08/12 02:53:27;;;;;;;4.00;3.70;;;22.40;99.90;;;;;;6176098;28;89221;-67
2023/08/12 02:56:31;;;;;;;4.50;3.75;;;22.50;99.90;;;;;;6158700;28;91424;-67
2023/08/12 02:59:33;;;;;;;3.92;3.40;;;22.40;99.90;;;;;;6168516;28;90190;-67
2023/08/12 03:02:35;;;;;;;4.35;3.70;;;22.40;99.90;;;;;;6164128;28;88978;-67
2023/08/12 03:05:37;;;;;;;5.18;4.07;;;22.40;99.90;;;;;;6170417;28;89100;-68
2023/08/12 03:08:39;;;;;;;4.50;3.97;;;22.40;99.90;;;;;;6175184;28;89036;-67
2023/08/12 03:11:42;;;;;;;4.18;3.63;;;22.40;99.90;;;;;;6176713;28;90624;-67
2023/08/12 03:14:44;;;;;;;4.15;3.75;;;22.40;99.90;;;;;;6180594;28;89041;-67
2023/08/12 03:17:46;;;;;;;4.55;4.15;;;22.40;99.90;;;;;;6180549;28;88289;-67
2023/08/12 03:20:48;;;;;;;4.55;4.15;;;22.40;99.90;;;;;;6170476;28;89088;-67
2023/08/12 03:23:50;;;;;;;4.78;4.20;;;22.40;99.90;;;;;;6166930;28;89177;-66
2023/08/12 03:26:53;;;;;;;4.78;3.92;;;22.40;99.90;;;;;;6180652;28;89990;-66
2023/08/12 03:29:55;;;;;;;4.30;3.90;;;22.40;99.90;;;;;;6171570;28;89286;-67
2023/08/12 03:32:58;;;;;;;4.50;4.10;;;22.40;99.90;;;;;;6169139;28;89091;-67
2023/08/12 03:35:59;;;;;;;4.22;3.83;;;22.40;99.90;;;;;;6156209;28;88450;-67
2023/08/12 03:39:01;;;;;;;4.20;3.90;;;22.40;99.90;;;;;;6150245;28;89445;-66
2023/08/12 03:42:05;;;;;;;4.65;4.20;;;22.40;99.90;;;;;;6171224;28;88260;-67
2023/08/12 03:45:08;;;;;;;4.85;4.18;;;22.40;99.90;;;;;;6178458;28;89037;-66
2023/08/12 03:48:10;;;;;;;4.30;3.85;;;22.40;99.90;;;;;;6170104;28;88272;-66
2023/08/12 03:51:12;;;;;;;4.85;4.45;;;22.30;99.90;;;;;;6131947;28;90383;-66
2023/08/12 03:54:14;;;;;;;4.55;4.15;;;22.40;99.90;;;;;;6151342;28;89093;-66
2023/08/12 03:57:18;;;;;;;4.50;4.10;;;22.40;99.90;;;;;;6159071;28;90153;-67
2023/08/12 04:00:20;;;;;;;4.70;4.30;;;22.40;99.90;;;;;;6161129;28;89058;-67
2023/08/12 04:03:22;;;;;;;3.97;3.67;;;22.40;99.90;;;;;;6151104;28;89112;-66
2023/08/12 04:06:24;;;;;;;4.32;3.92;;;22.40;99.90;;;;;;6158975;28;89144;-67
2023/08/12 04:09:26;;;;;;;4.60;4.20;;;22.30;99.90;;;;;;6156126;28;88026;-67
2023/08/12 04:12:30;;;;;;;4.70;4.30;;;22.40;99.90;;;;;;6151985;28;89052;-67
2023/08/12 04:15:31;;;;;;;4.70;4.30;;;22.40;99.90;;;;;;6157400;28;90118;-67
2023/08/12 04:18:34;;;;;;;5.55;4.43;;;22.40;99.90;;;;;;6133139;28;88535;-67
2023/08/12 04:21:36;;;;;;;4.88;4.38;;;22.40;99.90;;;;;;6142009;28;89140;-67
2023/08/12 04:24:38;;;;;;;4.78;4.38;;;22.40;99.90;;;;;;6152364;28;89126;-67
2023/08/12 04:27:41;;;;;;;4.45;4.05;;;22.40;99.90;;;;;;6152531;28;90115;-67
2023/08/12 04:30:43;;;;;;;4.13;3.83;;;22.40;99.90;;;;;;6158782;28;88020;-67
2023/08/12 04:33:45;;;;;;;4.93;4.25;;;22.30;99.90;;;;;;6155985;28;89267;-66
2023/08/12 04:36:47;;;;;;;4.78;4.38;;;22.30;99.90;;;;;;6153436;28;89116;-67
2023/08/12 04:39:49;;;;;;;4.90;4.50;;;22.30;99.90;;;;;;6167686;28;89028;-67
2023/08/12 04:42:52;;;;;;;4.82;4.32;;;22.40;99.90;;;;;;6161522;28;89184;-67
2023/08/12 04:45:55;;;;;;;4.63;4.22;;;22.30;99.90;;;;;;6150959;28;88955;-67
2023/08/12 04:48:57;;;;;;;4.43;4.03;;;22.30;99.90;;;;;;6178096;28;88258;-67
2023/08/12 04:51:59;;;;;;;4.57;4.15;;;22.40;99.90;;;;;;6166015;28;89012;-67
2023/08/12 04:55:02;;;;;;;5.00;4.60;;;22.40;99.90;;;;;;6161794;28;89003;-67
2023/08/12 04:58:06;;;;;;;4.50;4.10;;;22.40;99.90;;;;;;6177842;28;90561;-67
2023/08/12 05:01:09;;;;;;;4.90;4.50;;;22.40;99.90;;;;;;6161973;28;88270;-67
2023/08/12 05:04:11;;;;;;;4.18;3.88;;;22.50;99.90;;;;;;6183531;28;89057;-67
2023/08/12 05:07:13;;;;;;;4.60;4.18;;;22.40;99.90;;;;;;6177043;28;89034;-66
2023/08/12 05:10:15;;;;;;;4.43;4.03;;;22.40;99.90;;;;;;6176355;28;89062;-67
2023/08/12 05:13:19;;;;;;;4.78;4.38;;;22.50;99.90;;;;;;6168776;28;89352;-67
2023/08/12 05:16:21;;;;;;;4.38;3.97;;;22.50;99.90;;;;;;6168923;28;89531;-67
2023/08/12 05:19:23;;;;;;;5.05;4.65;;;22.50;99.90;;;;;;6170297;28;88260;-67
2023/08/12 05:22:25;;;;;;;4.47;4.10;;;22.50;99.90;;;;;;6166688;28;89124;-67
2023/08/12 05:25:27;;;;;;;4.70;4.20;;;22.50;99.90;;;;;;6178528;28;87944;-67
2023/08/12 05:28:30;;;;;;;5.10;4.60;;;22.50;99.90;;;;;;6173621;28;89950;-68
2023/08/12 05:31:32;;;;;;;4.88;4.38;;;22.50;99.90;;;;;;6169278;28;88339;-67
2023/08/12 05:34:34;;;;;;;4.95;4.40;;;22.50;99.90;;;;;;6173705;28;88958;-68
2023/08/12 05:37:36;;;;;;;4.75;4.35;;;22.50;99.90;;;;;;6172657;28;89182;-68
2023/08/12 05:40:38;;;;;;;4.53;4.13;;;22.50;99.90;;;;;;6168287;28;89141;-68
2023/08/12 05:43:41;;;;;;;4.75;4.35;;;22.50;99.90;;;;;;6172243;28;89208;-68
2023/08/12 05:46:43;;;;;;;4.53;4.13;;;22.60;99.90;;;;;;6176686;28;89133;-68
2023/08/12 05:49:45;;;;;;;4.32;4.03;;;22.60;99.90;;;;;;6160280;28;88408;-68
2023/08/12 05:52:47;;;;;;;4.78;4.28;;;22.60;99.90;;;;;;6141513;28;88803;-68
2023/08/12 05:55:49;;;;;;;4.97;4.47;;;22.60;99.90;;;;;;6140909;28;89344;-68
2023/08/12 05:58:52;;;;;;;5.50;4.60;;;22.60;99.90;;;;;;6150771;28;90111;-67
2023/08/12 06:01:55;;;;;;;5.18;4.60;;;22.60;99.90;;;;;;6154216;28;89172;-66
2023/08/12 06:04:57;;;;;;;4.97;4.57;;;22.60;99.90;;;;;;6149654;28;90567;-67
2023/08/12 06:07:59;;;;;;;5.93;5.25;;;22.60;99.90;;;;;;6166558;28;89053;-67
2023/08/12 06:11:01;;;;;;;5.70;5.20;;;22.70;99.90;;;;;;6162103;28;89492;-66
2023/08/12 06:14:04;;;;;;;5.30;4.80;;;22.70;99.90;;;;;;6136065;28;89083;-66
2023/08/12 06:17:07;;;;;;;5.10;4.63;;;22.80;99.90;;;;;;6140758;28;87901;-66
2023/08/12 06:20:09;;;;;;;5.18;4.68;;;22.80;99.90;;;;;;6153899;28;87447;-67
2023/08/12 06:23:12;;;;;;;4.75;4.35;;;22.70;99.90;;;;;;6163897;28;88044;-66
2023/08/12 06:26:13;;;;;;;4.80;4.40;;;22.80;99.90;;;;;;6144722;28;87978;-67
2023/08/12 06:29:23;;;;;;;6.03;4.63;;;22.80;99.90;;;;;;6159967;28;90045;-67
2023/08/12 06:32:25;;;;;;;5.82;5.25;;;22.80;99.90;;;;;;6156056;28;89095;-64
2023/08/12 06:35:27;;;;;;;5.97;5.13;;;22.70;99.90;;;;;;6144909;28;89706;-67
2023/08/12 06:38:29;;;;;;;6.07;5.07;;;22.80;99.90;;;;;;6151905;28;89159;-67
2023/08/12 06:41:31;;;;;;;5.88;5.13;;;22.80;99.90;;;;;;6134163;28;89029;-67
2023/08/12 06:44:34;;;;;;;5.35;4.85;;;22.80;99.90;;;;;;6135352;28;89120;-67
2023/08/12 06:47:36;;;;;;;7.90;5.30;;;22.80;99.90;;;;;;6143370;28;89289;-67
2023/08/12 06:50:39;;;;;;;15.98;7.13;;;22.80;99.90;;;;;;6171678;28;88294;-67
2023/08/12 06:53:41;;;;;;;13.70;7.22;;;22.80;99.90;;;;;;6163410;28;89106;-66
2023/08/12 06:56:43;;;;;;;19.33;8.38;;;22.80;99.90;;;;;;6163204;28;89076;-66
2023/08/12 06:59:46;;;;;;;21.48;8.55;;;22.80;99.90;;;;;;6165042;28;89957;-66
2023/08/12 07:02:48;;;;;;;14.70;7.20;;;22.80;99.90;;;;;;6157500;28;89058;-67
2023/08/12 07:05:50;;;;;;;15.80;7.55;;;22.80;99.90;;;;;;6166375;28;88035;-67
2023/08/12 07:08:52;;;;;;;15.27;7.32;;;22.80;99.90;;;;;;6174551;28;89129;-66
2023/08/12 07:11:54;;;;;;;17.40;7.72;;;22.80;99.90;;;;;;6169944;28;89107;-66
2023/08/12 07:14:57;;;;;;;17.95;7.90;;;22.80;99.90;;;;;;6176577;28;89102;-66
2023/08/12 07:18:02;;;;;;;24.15;9.70;;;22.80;99.90;;;;;;6161748;28;89107;-66
2023/08/12 07:21:04;;;;;;;39.13;12.98;;;22.80;99.90;;;;;;6160785;28;88639;-66
2023/08/12 07:24:07;;;;;;;32.25;12.05;;;22.80;99.90;;;;;;6171460;28;88800;-66
2023/08/12 07:27:09;;;;;;;32.17;12.07;;;22.80;99.90;;;;;;6167233;28;91157;-67
2023/08/12 07:30:13;;;;;;;32.92;11.90;;;22.80;99.90;;;;;;6165877;28;88875;-67
2023/08/12 07:33:15;;;;;;;29.45;10.55;;;22.80;99.90;;;;;;6159702;28;87950;-67
2023/08/12 07:36:17;;;;;;;28.60;10.45;;;22.80;99.90;;;;;;6170181;28;89029;-67
2023/08/12 07:39:19;;;;;;;20.88;9.48;;;22.90;99.90;;;;;;6164933;28;87966;-67
2023/08/12 07:42:21;;;;;;;22.63;9.05;;;22.90;99.90;;;;;;6179098;28;89173;-67
2023/08/12 07:45:24;;;;;;;18.75;8.73;;;22.90;99.90;;;;;;6165892;28;89206;-67
2023/08/12 07:48:27;;;;;;;18.35;8.25;;;22.90;99.90;;;;;;6175642;28;88444;-67
2023/08/12 07:51:29;;;;;;;16.00;7.78;;;22.90;99.90;;;;;;6159338;28;88112;-67
2023/08/12 07:54:31;;;;;;;17.85;8.00;;;22.90;99.90;;;;;;6142271;28;89421;-67
2023/08/12 07:57:33;;;;;;;15.88;7.30;;;22.90;99.90;;;;;;6137081;28;89065;-67
2023/08/12 08:00:36;;;;;;;15.50;7.32;;;22.90;99.90;;;;;;6130600;28;90074;-67
2023/08/12 08:03:38;;;;;;;14.27;7.80;;;22.90;99.90;;;;;;6130951;28;89079;-67
2023/08/12 08:06:40;;;;;;;13.23;7.07;;;22.90;99.90;;;;;;6146535;28;88950;-67
2023/08/12 08:09:42;;;;;;;16.00;7.30;;;22.90;99.90;;;;;;6153551;28;88137;-67
2023/08/12 08:12:44;;;;;;;12.50;6.90;;;22.90;99.90;;;;;;6139052;28;89064;-67
2023/08/12 08:15:48;;;;;;;13.27;6.65;;;22.90;99.90;;;;;;6140027;28;89415;-67
2023/08/12 08:18:49;;;;;;;12.43;6.55;;;23.00;99.90;;;;;;6146332;28;89445;-67
2023/08/12 08:21:51;;;;;;;12.82;6.57;;;22.90;99.90;;;;;;6144752;28;88292;-68
2023/08/12 08:24:53;;;;;;;13.95;6.90;;;22.90;99.90;;;;;;6145608;28;89578;-67
2023/08/12 08:27:55;;;;;;;15.13;7.03;;;22.90;99.90;;;;;;6147664;28;89508;-67
2023/08/12 08:30:59;;;;;;;15.18;7.10;;;22.90;99.90;;;;;;6156068;28;90083;-67
2023/08/12 08:34:01;;;;;;;11.48;6.75;;;23.00;99.90;;;;;;6155699;28;89074;-68
2023/08/12 08:37:03;;;;;;;12.05;6.45;;;23.00;99.90;;;;;;6152995;28;89078;-67
2023/08/12 08:40:07;;;;;;;11.80;6.15;;;23.00;99.90;;;;;;6151871;28;89031;-66
2023/08/12 08:43:10;;;;;;;11.75;6.03;;;23.10;99.90;;;;;;6144944;28;87171;-67
2023/08/12 08:46:17;;;;;;;12.73;6.55;;;23.10;99.90;;;;;;6153900;28;87995;-66
2023/08/12 08:49:21;;;;;;;10.60;5.95;;;23.10;99.90;;;;;;6155790;28;89484;-67
2023/08/12 08:52:26;;;;;;;10.25;6.03;;;23.20;99.90;;;;;;6177946;28;88281;-65
2023/08/12 08:55:28;;;;;;;10.35;6.15;;;23.20;99.90;;;;;;6170912;28;88976;-68
2023/08/12 08:58:31;;;;;;;10.70;5.80;;;23.20;99.90;;;;;;6177587;28;88902;-65
2023/08/12 09:01:37;;;;;;;10.35;6.00;;;23.20;99.90;;;;;;6174060;28;90066;-65
2023/08/12 09:04:39;;;;;;;10.80;5.47;;;23.10;99.90;;;;;;6163123;28;89028;-64
2023/08/12 09:07:43;;;;;;;9.65;5.57;;;23.10;99.90;;;;;;6171488;28;89133;-64
2023/08/12 09:10:48;;;;;;;11.27;6.05;;;23.10;99.90;;;;;;6175442;28;87794;-65
2023/08/12 09:13:50;;;;;;;11.77;6.28;;;23.10;99.90;;;;;;6160849;28;88047;-65
2023/08/12 09:16:53;;;;;;;10.38;5.97;;;23.10;99.90;;;;;;6173787;28;90803;-65
2023/08/12 09:19:55;;;;;;;8.85;5.88;;;23.10;99.90;;;;;;6174507;28;89034;-65
2023/08/12 09:22:58;;;;;;;9.65;5.82;;;23.10;99.90;;;;;;6182981;28;88352;-65
2023/08/12 09:26:02;;;;;;;8.80;5.68;;;23.10;99.90;;;;;;6170591;28;89131;-65
2023/08/12 09:29:04;;;;;;;9.55;5.55;;;23.00;99.90;;;;;;6182163;28;88210;-65
2023/08/12 09:32:11;;;;;;;11.05;6.63;;;23.10;99.90;;;;;;6170801;28;89973;-65
2023/08/12 09:35:17;;;;;;;9.98;5.45;;;23.10;99.90;;;;;;6179303;28;87968;-66
2023/08/12 09:38:19;;;;;;;8.32;5.55;;;23.10;99.90;;;;;;6172554;28;87871;-65
2023/08/12 09:41:24;;;;;;;9.85;5.35;;;23.10;99.90;;;;;;6177492;28;89109;-65
2023/08/12 09:44:26;;;;;;;9.57;5.45;;;23.10;99.90;;;;;;6177422;28;89399;-66
2023/08/12 09:47:29;;;;;;;6.70;5.25;;;23.10;99.90;;;;;;6165830;28;89530;-66
2023/08/12 09:50:31;;;;;;;7.65;5.50;;;23.10;99.90;;;;;;6163941;28;87946;-66
2023/08/12 09:53:34;;;;;;;8.52;5.45;;;23.10;99.90;;;;;;6161878;28;88301;-66
2023/08/12 09:56:40;;;;;;;7.13;4.97;;;23.10;99.90;;;;;;6167682;28;89234;-66
2023/08/12 09:59:42;;;;;;;8.50;4.85;;;23.10;99.90;;;;;;6176049;28;89049;-66
2023/08/12 10:02:47;;;;;;;10.77;4.95;;;23.00;99.90;;;;;;6168515;28;90016;-66
2023/08/12 10:05:49;;;;;;;9.05;5.20;;;23.00;99.90;;;;;;6171845;28;88991;-65
2023/08/12 10:08:52;;;;;;;8.57;5.28;;;23.00;99.90;;;;;;6169543;28;89025;-65
2023/08/12 10:11:54;;;;;;;7.53;4.72;;;23.00;99.90;;;;;;6174104;28;89129;-65
2023/08/12 10:14:57;;;;;;;9.23;4.93;;;23.00;99.90;;;;;;6166714;28;89259;-65
2023/08/12 10:18:01;;;;;;;5.97;4.80;;;23.00;99.90;;;;;;6162607;28;89143;-65
2023/08/12 10:21:03;;;;;;;6.65;4.90;;;23.10;99.90;;;;;;6168260;28;89042;-65
2023/08/12 10:24:07;;;;;;;6.88;4.80;;;23.10;99.90;;;;;;6173719;28;90007;-64
2023/08/12 10:27:11;;;;;;;6.95;4.97;;;23.00;99.90;;;;;;6162155;28;89059;-65
2023/08/12 10:30:14;;;;;;;7.13;4.90;;;23.00;99.90;;;;;;6164846;28;88102;-64
2023/08/12 10:33:18;;;;;;;9.57;5.25;;;23.10;99.90;;;;;;6171925;28;90077;-65
2023/08/12 10:36:22;;;;;;;8.98;5.38;;;23.10;99.90;;;;;;6167229;28;87982;-65
2023/08/12 10:39:26;;;;;;;7.72;5.00;;;23.10;99.90;;;;;;6181273;28;89031;-65
2023/08/12 10:42:42;;;;;;;6.97;4.68;;;23.00;99.90;;;;;;6180656;28;89149;-65
2023/08/12 10:45:47;;;;;;;9.23;5.10;;;23.10;99.90;;;;;;6168853;28;89196;-69
2023/08/12 10:49:04;;;;;;;8.88;4.70;;;23.10;99.90;;;;;;6170736;28;89028;-65
2023/08/12 10:52:06;;;;;;;8.32;5.35;;;23.10;99.90;;;;;;6174308;28;89080;-65
2023/08/12 10:55:18;;;;;;;7.57;4.90;;;23.10;99.90;;;;;;6162932;28;88324;-65
2023/08/12 10:58:28;;;;;;;8.07;4.90;;;23.10;99.90;;;;;;6172321;28;89233;-65
2023/08/12 11:01:32;;;;;;;9.23;5.13;;;23.10;99.90;;;;;;6175558;28;89038;-64
2023/08/12 11:04:40;;;;;;;7.75;5.00;;;23.10;99.90;;;;;;6172690;28;88939;-65
2023/08/12 11:07:43;;;;;;;7.82;4.40;;;23.10;99.90;;;;;;6181580;28;89086;-65
2023/08/12 11:10:45;;;;;;;7.13;4.57;;;23.10;99.90;;;;;;6179372;28;89113;-65
2023/08/12 11:13:48;;;;;;;9.93;4.60;;;23.20;99.90;;;;;;6171007;28;87974;-65
2023/08/12 11:16:52;;;;;;;6.63;4.53;;;23.20;99.90;;;;;;6170719;28;89216;-65
2023/08/12 11:19:56;;;;;;;7.85;4.78;;;23.10;99.90;;;;;;6173699;28;87940;-65
2023/08/12 11:22:59;;;;;;;7.07;4.82;;;23.10;99.90;;;;;;6177290;28;89380;-65
2023/08/12 11:26:02;;;;;;;9.52;5.13;;;23.20;99.90;;;;;;6165457;28;89566;-65
2023/08/12 11:29:10;;;;;;;6.72;4.80;;;23.10;99.90;;;;;;6160816;28;89635;-64
2023/08/12 11:32:12;;;;;;;8.30;4.32;;;23.20;99.90;;;;;;6159754;28;89314;-65
2023/08/12 11:35:16;;;;;;;7.90;4.38;;;23.20;99.90;;;;;;6168548;28;89886;-65
2023/08/12 11:38:19;;;;;;;7.75;4.40;;;23.20;99.90;;;;;;6178553;28;89047;-65
2023/08/12 11:41:23;;;;;;;6.30;4.75;;;23.20;99.90;;;;;;6170141;28;89216;-65
2023/08/12 11:44:25;;;;;;;6.40;4.32;;;23.20;99.90;;;;;;6162300;28;89187;-66
2023/08/12 11:47:27;;;;;;;7.25;4.55;;;23.20;99.90;;;;;;6161388;28;89273;-66
2023/08/12 11:50:31;;;;;;;5.68;4.30;;;23.20;99.90;;;;;;6133440;28;89149;-66
2023/08/12 11:53:33;;;;;;;4.88;3.88;;;23.10;99.90;;;;;;6147728;28;89612;-64
2023/08/12 11:56:35;;;;;;;9.20;4.65;;;23.20;99.90;;;;;;6145334;28;88935;-65
2023/08/12 11:59:38;;;;;;;7.03;4.43;;;23.20;99.90;;;;;;6142079;28;89023;-65
2023/08/12 12:02:42;;;;;;;8.45;4.30;;;23.20;99.90;;;;;;6147540;28;89015;-65
2023/08/12 12:05:47;;;;;;;6.95;4.40;;;23.20;99.90;;;;;;6139737;28;90020;-63
2023/08/12 12:08:50;;;;;;;6.15;4.00;;;23.20;99.90;;;;;;6155093;28;89610;-65
2023/08/12 12:11:54;;;;;;;8.30;4.60;;;23.20;99.90;;;;;;6144018;28;88059;-64
2023/08/12 12:14:57;;;;;;;4.07;3.67;;;23.20;99.90;;;;;;6154410;28;87975;-63
2023/08/12 12:17:59;;;;;;;14.17;8.77;;;23.20;99.90;;;;;;6155196;28;87992;-64
2023/08/12 12:21:02;;;;;;;51.78;28.58;;;23.30;99.90;;;;;;6158974;28;89351;-64
2023/08/12 12:24:05;;;;;;;24.13;13.60;;;23.30;99.90;;;;;;6158020;28;87978;-64
2023/08/12 12:27:07;;;;;;;10.82;6.60;;;23.40;99.90;;;;;;6148688;28;88835;-64
2023/08/12 12:30:11;;;;;;;8.13;5.35;;;23.60;99.90;;;;;;6158181;28;89104;-65
2023/08/12 12:33:13;;;;;;;7.30;3.78;;;23.70;99.90;;;;;;6154772;28;89080;-67
2023/08/12 12:36:16;;;;;;;7.82;4.40;;;23.80;99.90;;;;;;6155724;28;90074;-66
2023/08/12 12:39:18;;;;;;;5.80;4.22;;;23.90;99.90;;;;;;6151700;28;89326;-64
2023/08/12 12:42:20;;;;;;;6.35;4.00;;;23.90;99.90;;;;;;6159191;28;89164;-64
2023/08/12 12:45:22;;;;;;;6.93;4.40;;;23.90;99.90;;;;;;6157428;28;89253;-64
2023/08/12 12:48:24;;;;;;;8.45;4.60;;;23.90;99.90;;;;;;6167650;28;89584;-64
2023/08/12 12:51:28;;;;;;;6.43;4.05;;;23.90;99.90;;;;;;6176482;28;89131;-64
2023/08/12 12:54:31;;;;;;;8.98;4.40;;;24.00;99.90;;;;;;6161669;28;89045;-64
2023/08/12 12:57:33;;;;;;;6.78;4.25;;;24.00;99.90;;;;;;6182373;28;88404;-64
2023/08/12 13:00:35;;;;;;;4.22;3.20;;;24.00;99.90;;;;;;6160426;28;89314;-63
2023/08/12 13:03:37;;;;;;;7.40;4.40;;;24.00;99.90;;;;;;6165643;28;89189;-64
2023/08/12 13:06:40;;;;;;;3.78;3.22;;;23.90;99.90;;;;;;6181125;28;89992;-63
2023/08/12 13:09:42;;;;;;;5.75;3.58;;;23.90;99.90;;;;;;6175354;28;89062;-64
2023/08/12 13:12:44;;;;;;;6.45;3.38;;;23.90;99.90;;;;;;6177474;28;89028;-64
2023/08/12 13:15:47;;;;;;;8.32;3.80;;;23.90;99.90;;;;;;6164932;28;88031;-64
2023/08/12 13:18:49;;;;;;;6.13;3.42;;;23.90;99.90;;;;;;6180307;28;88924;-64
2023/08/12 13:21:52;;;;;;;3.90;2.95;;;23.90;99.90;;;;;;6174931;28;88970;-64
2023/08/12 13:24:54;;;;;;;4.53;3.20;;;23.90;99.90;;;;;;6178324;28;89108;-64
2023/08/12 13:27:56;;;;;;;5.28;3.60;;;23.90;99.90;;;;;;6176805;28;87229;-64
2023/08/12 13:30:58;;;;;;;4.90;3.33;;;23.90;99.90;;;;;;6175651;28;88966;-64
2023/08/12 13:34:00;;;;;;;4.43;3.63;;;23.90;99.90;;;;;;6174943;28;90183;-64
2023/08/12 13:37:04;;;;;;;4.82;3.45;;;23.90;99.90;;;;;;6164266;28;90075;-63
2023/08/12 13:40:08;;;;;;;5.03;3.40;;;23.90;99.90;;;;;;6160756;28;88718;-64
2023/08/12 13:43:10;;;;;;;3.78;2.95;;;23.90;99.90;;;;;;6170467;28;89165;-64
2023/08/12 13:46:12;;;;;;;4.22;3.00;;;23.90;99.90;;;;;;6166312;28;89557;-63
2023/08/12 13:49:14;;;;;;;4.95;3.03;;;23.90;99.90;;;;;;6158166;28;89313;-64
2023/08/12 13:52:18;;;;;;;3.75;3.10;;;23.90;99.90;;;;;;6146366;28;89074;-64
2023/08/12 13:55:20;;;;;;;5.50;3.20;;;23.80;99.90;;;;;;6147674;28;89075;-64
2023/08/12 13:58:22;;;;;;;5.47;3.38;;;23.90;99.90;;;;;;6158800;28;88456;-64
2023/08/12 14:01:24;;;;;;;5.15;3.03;;;23.90;99.90;;;;;;6150157;28;89006;-64
2023/08/12 14:04:26;;;;;;;4.78;2.58;;;23.80;99.90;;;;;;6163179;28;89083;-65
2023/08/12 14:07:30;;;;;;;3.90;2.80;;;23.90;99.90;;;;;;6164063;28;90072;-64
2023/08/12 14:10:31;;;;;;;4.25;2.83;;;23.90;99.90;;;;;;6152314;28;89241;-64
2023/08/12 14:13:34;;;;;;;5.47;3.15;;;23.90;99.90;;;;;;6141720;28;89063;-64
2023/08/12 14:16:36;;;;;;;4.47;3.10;;;23.90;99.90;;;;;;6156579;28;89071;-66
2023/08/12 14:19:38;;;;;;;4.70;2.92;;;23.90;99.90;;;;;;6156818;28;89415;-65
2023/08/12 14:22:43;;;;;;;5.22;3.20;;;23.90;99.90;;;;;;6154513;28;89061;-64
2023/08/12 14:25:45;;;;;;;5.15;3.00;;;23.90;99.90;;;;;;6162361;28;89092;-65
2023/08/12 14:28:47;;;;;;;3.47;3.10;;;23.90;99.90;;;;;;6148422;28;88586;-64
2023/08/12 14:31:49;;;;;;;5.80;3.10;;;23.90;99.90;;;;;;6152179;28;89073;-65
2023/08/12 14:34:51;;;;;;;5.28;3.28;;;23.90;99.90;;;;;;6151428;28;87979;-65
2023/08/12 14:37:55;;;;;;;4.53;2.97;;;23.90;99.90;;;;;;6146615;28;90324;-65
2023/08/12 14:40:57;;;;;;;3.63;3.00;;;23.90;99.90;;;;;;6161456;28;88352;-65
2023/08/12 14:43:59;;;;;;;8.07;3.13;;;23.90;99.90;;;;;;6161461;28;89328;-65
2023/08/12 14:47:00;;;;;;;7.80;3.28;;;23.90;99.90;;;;;;6162961;28;87968;-65
2023/08/12 14:50:03;;;;;;;3.33;2.50;;;23.90;99.90;;;;;;6166523;28;88829;-65
2023/08/12 14:53:07;;;;;;;2.83;2.50;;;23.90;99.90;;;;;;6182794;28;89034;-65
2023/08/12 14:56:09;;;;;;;4.05;2.72;;;23.90;99.90;;;;;;6178207;28;89415;-65
2023/08/12 14:59:11;;;;;;;5.13;2.90;;;23.90;99.90;;;;;;6178842;28;88598;-64
2023/08/12 15:02:13;;;;;;;3.85;2.70;;;24.00;99.90;;;;;;6167080;28;88789;-64
2023/08/12 15:05:15;;;;;;;4.32;2.70;;;24.00;99.90;;;;;;6171532;28;88961;-64
2023/08/12 15:08:18;;;;;;;6.07;2.92;;;23.90;99.90;;;;;;6173799;28;89837;-64
2023/08/12 15:11:22;;;;;;;4.60;2.88;;;23.90;99.90;;;;;;6170450;28;88745;-64
2023/08/12 15:14:25;;;;;;;4.40;2.75;;;23.90;99.90;;;;;;6172668;28;89016;-64
2023/08/12 15:17:27;;;;;;;3.80;2.72;;;23.90;99.90;;;;;;6165278;28;91119;-64
2023/08/12 15:20:29;;;;;;;3.90;2.80;;;23.90;99.90;;;;;;6175659;28;88044;-64
2023/08/12 15:23:33;;;;;;;5.72;3.53;;;23.90;99.90;;;;;;6177717;28;89193;-64
2023/08/12 15:26:35;;;;;;;4.00;2.50;;;24.00;99.90;;;;;;6167780;28;89453;-63
2023/08/12 15:29:37;;;;;;;3.75;2.50;;;24.00;99.90;;;;;;6178976;28;88386;-64
2023/08/12 15:32:39;;;;;;;2.60;2.40;;;24.00;99.90;;;;;;6179280;28;89138;-65
2023/08/12 15:35:41;;;;;;;3.75;2.40;;;24.00;99.90;;;;;;6179932;28;89048;-64
2023/08/12 15:38:46;;;;;;;5.07;2.88;;;24.00;99.90;;;;;;6170768;28;90426;-65
2023/08/12 15:41:49;;;;;;;6.05;3.00;;;24.00;99.90;;;;;;6174439;28;89195;-64
2023/08/12 15:44:51;;;;;;;5.90;3.13;;;24.00;99.90;;;;;;6168140;28;89032;-64
2023/08/12 15:47:54;;;;;;;12.70;3.85;;;24.10;99.90;;;;;;6179189;28;88430;-64
2023/08/12 15:50:55;;;;;;;5.38;3.40;;;24.10;99.90;;;;;;6169966;28;89042;-64